sensor_id;sensor_type;location;lat;lon;timestamp;P1;durP1;ratioP1;P2;durP2;ratioP2
59169;SDS011;52474;52.236;5.114;2022-08-11T00:00:38;5.20;;;3.92;;
59169;SDS011;52474;52.236;5.114;2022-08-11T00:03:08;5.82;;;3.90;;
59169;SDS011;52474;52.236;5.114;2022-08-11T00:05:46;5.78;;;3.75;;
59169;SDS011;52474;52.236;5.114;2022-08-11T00:08:21;7.57;;;3.60;;
59169;SDS011;52474;52.236;5.114;2022-08-11T00:10:58;5.25;;;3.88;;
59169;SDS011;52474;52.236;5.114;2022-08-11T00:13:42;6.90;;;3.72;;
59169;SDS011;52474;52.236;5.114;2022-08-11T00:16:15;7.63;;;4.63;;
59169;SDS011;52474;52.236;5.114;2022-08-11T00:18:46;7.45;;;4.30;;
59169;SDS011;52474;52.236;5.114;2022-08-11T00:21:15;6.63;;;3.97;;
59169;SDS011;52474;52.236;5.114;2022-08-11T00:23:44;5.03;;;3.60;;
59169;SDS011;52474;52.236;5.114;2022-08-11T00:26:17;8.30;;;4.13;;
59169;SDS011;52474;52.236;5.114;2022-08-11T00:28:43;6.68;;;4.25;;
59169;SDS011;52474;52.236;5.114;2022-08-11T00:31:21;6.68;;;3.83;;
59169;SDS011;52474;52.236;5.114;2022-08-11T00:33:50;4.20;;;3.80;;
59169;SDS011;52474;52.236;5.114;2022-08-11T00:36:18;8.13;;;4.07;;
59169;SDS011;52474;52.236;5.114;2022-08-11T00:38:44;4.70;;;3.78;;
59169;SDS011;52474;52.236;5.114;2022-08-11T00:44:01;4.85;;;3.40;;
59169;SDS011;52474;52.236;5.114;2022-08-11T00:49:45;6.28;;;4.28;;
59169;SDS011;52474;52.236;5.114;2022-08-11T00:52:46;5.07;;;3.90;;
59169;SDS011;52474;52.236;5.114;2022-08-11T01:03:50;6.90;;;4.00;;
59169;SDS011;52474;52.236;5.114;2022-08-11T01:24:05;5.25;;;3.40;;
59169;SDS011;52474;52.236;5.114;2022-08-11T01:37:42;6.18;;;3.58;;
59169;SDS011;52474;52.236;5.114;2022-08-11T01:46:15;3.90;;;3.50;;
59169;SDS011;52474;52.236;5.114;2022-08-11T01:57:12;12.35;;;3.95;;
59169;SDS011;52474;52.236;5.114;2022-08-11T02:00:00;5.72;;;4.15;;
59169;SDS011;52474;52.236;5.114;2022-08-11T02:03:11;3.90;;;3.30;;
59169;SDS011;52474;52.236;5.114;2022-08-11T02:08:13;5.50;;;3.30;;
59169;SDS011;52474;52.236;5.114;2022-08-11T02:10:57;11.55;;;3.95;;
59169;SDS011;52474;52.236;5.114;2022-08-11T02:25:34;5.45;;;4.03;;
59169;SDS011;52474;52.236;5.114;2022-08-11T02:31:32;8.85;;;4.18;;
59169;SDS011;52474;52.236;5.114;2022-08-11T02:37:36;6.03;;;4.70;;
59169;SDS011;52474;52.236;5.114;2022-08-11T02:42:25;5.57;;;4.30;;
59169;SDS011;52474;52.236;5.114;2022-08-11T02:53:31;7.72;;;4.72;;
59169;SDS011;52474;52.236;5.114;2022-08-11T02:56:06;7.57;;;4.60;;
59169;SDS011;52474;52.236;5.114;2022-08-11T02:58:45;7.05;;;4.60;;
59169;SDS011;52474;52.236;5.114;2022-08-11T03:01:43;5.10;;;4.25;;
59169;SDS011;52474;52.236;5.114;2022-08-11T03:04:17;5.45;;;4.85;;
59169;SDS011;52474;52.236;5.114;2022-08-11T03:07:00;6.05;;;4.32;;
59169;SDS011;52474;52.236;5.114;2022-08-11T03:12:05;6.38;;;4.32;;
59169;SDS011;52474;52.236;5.114;2022-08-11T03:14:57;6.28;;;4.60;;
59169;SDS011;52474;52.236;5.114;2022-08-11T03:18:03;6.63;;;4.85;;
59169;SDS011;52474;52.236;5.114;2022-08-11T03:20:37;5.03;;;4.32;;
59169;SDS011;52474;52.236;5.114;2022-08-11T03:28:33;8.68;;;4.88;;
59169;SDS011;52474;52.236;5.114;2022-08-11T03:39:17;7.38;;;4.95;;
59169;SDS011;52474;52.236;5.114;2022-08-11T03:44:54;7.65;;;4.57;;
59169;SDS011;52474;52.236;5.114;2022-08-11T03:59:03;6.43;;;4.90;;
59169;SDS011;52474;52.236;5.114;2022-08-11T04:04:43;7.63;;;5.53;;
59169;SDS011;52474;52.236;5.114;2022-08-11T04:33:23;6.00;;;4.93;;
59169;SDS011;52474;52.236;5.114;2022-08-11T04:39:15;8.00;;;5.20;;
59169;SDS011;52474;52.236;5.114;2022-08-11T04:42:10;5.95;;;4.95;;
59169;SDS011;52474;52.236;5.114;2022-08-11T04:51:42;5.38;;;4.57;;
59169;SDS011;52474;52.236;5.114;2022-08-11T05:00:55;6.97;;;5.43;;
59169;SDS011;52474;52.236;5.114;2022-08-11T05:06:56;7.57;;;5.15;;
59169;SDS011;52474;52.236;5.114;2022-08-11T05:13:08;6.88;;;5.30;;
59169;SDS011;52474;52.236;5.114;2022-08-11T05:15:56;5.35;;;4.80;;
59169;SDS011;52474;52.236;5.114;2022-08-11T05:18:49;8.00;;;4.85;;
59169;SDS011;52474;52.236;5.114;2022-08-11T05:21:36;6.68;;;5.00;;
59169;SDS011;52474;52.236;5.114;2022-08-11T05:24:43;9.13;;;5.22;;
59169;SDS011;52474;52.236;5.114;2022-08-11T05:27:32;6.57;;;4.55;;
59169;SDS011;52474;52.236;5.114;2022-08-11T05:30:25;6.82;;;5.05;;
59169;SDS011;52474;52.236;5.114;2022-08-11T05:36:26;5.57;;;4.35;;
59169;SDS011;52474;52.236;5.114;2022-08-11T05:38:58;7.25;;;4.70;;
59169;SDS011;52474;52.236;5.114;2022-08-11T05:41:46;8.57;;;4.78;;
59169;SDS011;52474;52.236;5.114;2022-08-11T05:44:33;6.18;;;4.32;;
59169;SDS011;52474;52.236;5.114;2022-08-11T05:47:23;5.80;;;4.75;;
59169;SDS011;52474;52.236;5.114;2022-08-11T05:50:14;5.25;;;4.18;;
59169;SDS011;52474;52.236;5.114;2022-08-11T05:53:01;6.93;;;4.80;;
59169;SDS011;52474;52.236;5.114;2022-08-11T05:55:47;5.38;;;3.83;;
59169;SDS011;52474;52.236;5.114;2022-08-11T05:58:42;8.10;;;5.05;;
59169;SDS011;52474;52.236;5.114;2022-08-11T06:01:11;6.00;;;4.65;;
59169;SDS011;52474;52.236;5.114;2022-08-11T06:03:40;4.90;;;4.40;;
59169;SDS011;52474;52.236;5.114;2022-08-11T06:06:27;8.60;;;3.90;;
59169;SDS011;52474;52.236;5.114;2022-08-11T06:08:55;5.07;;;3.83;;
59169;SDS011;52474;52.236;5.114;2022-08-11T06:11:22;6.22;;;4.32;;
59169;SDS011;52474;52.236;5.114;2022-08-11T06:13:49;5.20;;;4.00;;
59169;SDS011;52474;52.236;5.114;2022-08-11T06:16:24;5.78;;;4.25;;
59169;SDS011;52474;52.236;5.114;2022-08-11T06:18:52;5.13;;;3.95;;
59169;SDS011;52474;52.236;5.114;2022-08-11T06:21:19;6.72;;;4.30;;
59169;SDS011;52474;52.236;5.114;2022-08-11T06:23:47;6.80;;;3.50;;
59169;SDS011;52474;52.236;5.114;2022-08-11T06:26:14;5.28;;;3.70;;
59169;SDS011;52474;52.236;5.114;2022-08-11T06:28:42;7.47;;;4.10;;
59169;SDS011;52474;52.236;5.114;2022-08-11T06:31:19;7.10;;;3.85;;
59169;SDS011;52474;52.236;5.114;2022-08-11T06:36:27;11.82;;;3.53;;
59169;SDS011;52474;52.236;5.114;2022-08-11T06:39:08;4.85;;;3.78;;
59169;SDS011;52474;52.236;5.114;2022-08-11T06:44:53;6.25;;;3.40;;
59169;SDS011;52474;52.236;5.114;2022-08-11T06:47:29;5.32;;;4.05;;
59169;SDS011;52474;52.236;5.114;2022-08-11T06:49:59;5.25;;;3.60;;
59169;SDS011;52474;52.236;5.114;2022-08-11T06:52:44;4.38;;;3.38;;
59169;SDS011;52474;52.236;5.114;2022-08-11T06:55:24;6.63;;;3.70;;
59169;SDS011;52474;52.236;5.114;2022-08-11T07:05:51;6.20;;;3.05;;
59169;SDS011;52474;52.236;5.114;2022-08-11T07:15:42;9.88;;;3.08;;
59169;SDS011;52474;52.236;5.114;2022-08-11T07:18:16;7.05;;;3.08;;
59169;SDS011;52474;52.236;5.114;2022-08-11T07:21:13;4.82;;;2.95;;
59169;SDS011;52474;52.236;5.114;2022-08-11T07:26:57;5.88;;;2.63;;
59169;SDS011;52474;52.236;5.114;2022-08-11T07:29:44;6.78;;;2.88;;
59169;SDS011;52474;52.236;5.114;2022-08-11T07:32:19;5.85;;;2.90;;
59169;SDS011;52474;52.236;5.114;2022-08-11T07:34:55;7.18;;;3.03;;
59169;SDS011;52474;52.236;5.114;2022-08-11T07:37:28;7.07;;;2.75;;
59169;SDS011;52474;52.236;5.114;2022-08-11T07:39:59;5.05;;;2.40;;
59169;SDS011;52474;52.236;5.114;2022-08-11T07:42:28;3.17;;;2.50;;
59169;SDS011;52474;52.236;5.114;2022-08-11T07:45:00;4.45;;;2.60;;
59169;SDS011;52474;52.236;5.114;2022-08-11T07:47:49;4.63;;;2.58;;
59169;SDS011;52474;52.236;5.114;2022-08-11T07:50:41;4.87;;;2.37;;
59169;SDS011;52474;52.236;5.114;2022-08-11T07:53:27;2.67;;;2.33;;
59169;SDS011;52474;52.236;5.114;2022-08-11T07:55:55;3.08;;;2.30;;
59169;SDS011;52474;52.236;5.114;2022-08-11T08:01:56;6.63;;;2.67;;
59169;SDS011;52474;52.236;5.114;2022-08-11T08:04:42;3.95;;;2.42;;
59169;SDS011;52474;52.236;5.114;2022-08-11T08:07:32;3.42;;;2.20;;
59169;SDS011;52474;52.236;5.114;2022-08-11T08:10:17;5.57;;;2.45;;
59169;SDS011;52474;52.236;5.114;2022-08-11T08:13:12;5.28;;;2.40;;
59169;SDS011;52474;52.236;5.114;2022-08-11T08:15:57;4.50;;;2.45;;
59169;SDS011;52474;52.236;5.114;2022-08-11T08:18:42;2.70;;;2.50;;
59169;SDS011;52474;52.236;5.114;2022-08-11T08:21:09;6.30;;;2.50;;
59169;SDS011;52474;52.236;5.114;2022-08-11T08:23:40;4.97;;;2.50;;
59169;SDS011;52474;52.236;5.114;2022-08-11T08:26:10;4.05;;;2.33;;
59169;SDS011;52474;52.236;5.114;2022-08-11T08:29:00;3.95;;;2.95;;
59169;SDS011;52474;52.236;5.114;2022-08-11T08:31:47;7.38;;;2.70;;
59169;SDS011;52474;52.236;5.114;2022-08-11T08:34:14;3.17;;;2.20;;
59169;SDS011;52474;52.236;5.114;2022-08-11T08:36:41;4.53;;;2.50;;
59169;SDS011;52474;52.236;5.114;2022-08-11T08:39:30;4.10;;;2.33;;
59169;SDS011;52474;52.236;5.114;2022-08-11T08:42:03;3.38;;;2.40;;
59169;SDS011;52474;52.236;5.114;2022-08-11T08:44:44;3.40;;;2.67;;
59169;SDS011;52474;52.236;5.114;2022-08-11T08:49:40;4.25;;;2.35;;
59169;SDS011;52474;52.236;5.114;2022-08-11T08:52:13;3.42;;;2.15;;
59169;SDS011;52474;52.236;5.114;2022-08-11T08:54:47;3.75;;;2.25;;
59169;SDS011;52474;52.236;5.114;2022-08-11T08:57:19;3.25;;;2.30;;
59169;SDS011;52474;52.236;5.114;2022-08-11T08:59:47;3.63;;;2.20;;
59169;SDS011;52474;52.236;5.114;2022-08-11T09:02:14;3.50;;;2.13;;
59169;SDS011;52474;52.236;5.114;2022-08-11T09:07:11;4.90;;;2.47;;
59169;SDS011;52474;52.236;5.114;2022-08-11T09:09:49;3.03;;;2.33;;
59169;SDS011;52474;52.236;5.114;2022-08-11T09:12:19;4.32;;;2.22;;
59169;SDS011;52474;52.236;5.114;2022-08-11T09:14:49;4.13;;;2.30;;
59169;SDS011;52474;52.236;5.114;2022-08-11T09:17:25;5.97;;;2.70;;
59169;SDS011;52474;52.236;5.114;2022-08-11T09:20:03;5.90;;;2.10;;
59169;SDS011;52474;52.236;5.114;2022-08-11T09:22:35;10.30;;;3.40;;
59169;SDS011;52474;52.236;5.114;2022-08-11T09:25:26;5.18;;;2.50;;
59169;SDS011;52474;52.236;5.114;2022-08-11T09:28:16;3.22;;;2.45;;
59169;SDS011;52474;52.236;5.114;2022-08-11T09:30:49;3.70;;;2.60;;
59169;SDS011;52474;52.236;5.114;2022-08-11T09:33:20;3.58;;;2.30;;
59169;SDS011;52474;52.236;5.114;2022-08-11T09:35:48;4.20;;;2.38;;
59169;SDS011;52474;52.236;5.114;2022-08-11T09:38:15;2.65;;;2.40;;
59169;SDS011;52474;52.236;5.114;2022-08-11T09:41:03;5.03;;;2.60;;
59169;SDS011;52474;52.236;5.114;2022-08-11T09:43:32;3.28;;;2.22;;
59169;SDS011;52474;52.236;5.114;2022-08-11T09:46:27;3.13;;;2.33;;
59169;SDS011;52474;52.236;5.114;2022-08-11T09:49:00;3.92;;;2.50;;
59169;SDS011;52474;52.236;5.114;2022-08-11T09:51:29;4.82;;;2.47;;
59169;SDS011;52474;52.236;5.114;2022-08-11T09:53:58;3.65;;;2.72;;
59169;SDS011;52474;52.236;5.114;2022-08-11T09:56:33;4.55;;;2.55;;
59169;SDS011;52474;52.236;5.114;2022-08-11T09:59:23;4.50;;;2.42;;
59169;SDS011;52474;52.236;5.114;2022-08-11T10:01:51;5.22;;;2.28;;
59169;SDS011;52474;52.236;5.114;2022-08-11T10:04:25;3.38;;;2.30;;
59169;SDS011;52474;52.236;5.114;2022-08-11T10:07:00;5.20;;;2.55;;
59169;SDS011;52474;52.236;5.114;2022-08-11T10:12:02;5.05;;;2.35;;
59169;SDS011;52474;52.236;5.114;2022-08-11T10:14:33;4.72;;;2.25;;
59169;SDS011;52474;52.236;5.114;2022-08-11T10:17:27;3.67;;;1.92;;
59169;SDS011;52474;52.236;5.114;2022-08-11T10:19:57;5.25;;;2.38;;
59169;SDS011;52474;52.236;5.114;2022-08-11T10:22:53;3.70;;;1.90;;
59169;SDS011;52474;52.236;5.114;2022-08-11T10:25:40;3.03;;;2.10;;
59169;SDS011;52474;52.236;5.114;2022-08-11T10:28:26;4.13;;;2.42;;
59169;SDS011;52474;52.236;5.114;2022-08-11T10:30:52;5.25;;;2.30;;
59169;SDS011;52474;52.236;5.114;2022-08-11T10:33:37;4.80;;;2.20;;
59169;SDS011;52474;52.236;5.114;2022-08-11T10:36:41;3.03;;;2.30;;
59169;SDS011;52474;52.236;5.114;2022-08-11T10:39:23;4.03;;;2.00;;
59169;SDS011;52474;52.236;5.114;2022-08-11T10:41:53;2.53;;;2.03;;
59169;SDS011;52474;52.236;5.114;2022-08-11T10:44:43;2.97;;;2.00;;
59169;SDS011;52474;52.236;5.114;2022-08-11T10:47:12;5.35;;;2.30;;
59169;SDS011;52474;52.236;5.114;2022-08-11T10:49:59;4.70;;;2.37;;
59169;SDS011;52474;52.236;5.114;2022-08-11T10:52:46;3.92;;;1.90;;
59169;SDS011;52474;52.236;5.114;2022-08-11T10:55:33;4.63;;;2.00;;
59169;SDS011;52474;52.236;5.114;2022-08-11T10:58:20;3.85;;;2.20;;
59169;SDS011;52474;52.236;5.114;2022-08-11T11:03:47;7.38;;;2.25;;
59169;SDS011;52474;52.236;5.114;2022-08-11T11:11:46;3.88;;;2.30;;
59169;SDS011;52474;52.236;5.114;2022-08-11T11:14:36;4.18;;;2.20;;
59169;SDS011;52474;52.236;5.114;2022-08-11T11:17:26;4.00;;;2.40;;
59169;SDS011;52474;52.236;5.114;2022-08-11T11:20:26;3.45;;;2.30;;
59169;SDS011;52474;52.236;5.114;2022-08-11T11:23:24;2.67;;;2.25;;
59169;SDS011;52474;52.236;5.114;2022-08-11T11:26:05;6.22;;;2.50;;
59169;SDS011;52474;52.236;5.114;2022-08-11T11:37:01;2.85;;;2.25;;
59169;SDS011;52474;52.236;5.114;2022-08-11T11:39:29;4.07;;;2.50;;
59169;SDS011;52474;52.236;5.114;2022-08-11T11:42:03;4.82;;;2.80;;
59169;SDS011;52474;52.236;5.114;2022-08-11T11:44:32;2.97;;;2.45;;
59169;SDS011;52474;52.236;5.114;2022-08-11T11:46:59;5.87;;;2.73;;
59169;SDS011;52474;52.236;5.114;2022-08-11T11:49:27;4.53;;;2.70;;
59169;SDS011;52474;52.236;5.114;2022-08-11T11:51:56;4.10;;;2.28;;
59169;SDS011;52474;52.236;5.114;2022-08-11T11:54:27;5.03;;;2.55;;
59169;SDS011;52474;52.236;5.114;2022-08-11T11:56:56;3.95;;;2.50;;
59169;SDS011;52474;52.236;5.114;2022-08-11T11:59:44;5.60;;;2.88;;
59169;SDS011;52474;52.236;5.114;2022-08-11T12:02:35;3.80;;;2.40;;
59169;SDS011;52474;52.236;5.114;2022-08-11T12:05:02;3.53;;;2.47;;
59169;SDS011;52474;52.236;5.114;2022-08-11T12:07:29;2.53;;;2.33;;
59169;SDS011;52474;52.236;5.114;2022-08-11T12:10:15;3.78;;;2.40;;
59169;SDS011;52474;52.236;5.114;2022-08-11T12:12:43;3.80;;;2.17;;
59169;SDS011;52474;52.236;5.114;2022-08-11T12:15:28;3.92;;;2.45;;
59169;SDS011;52474;52.236;5.114;2022-08-11T12:17:55;6.38;;;2.30;;
59169;SDS011;52474;52.236;5.114;2022-08-11T12:20:23;6.63;;;2.45;;
59169;SDS011;52474;52.236;5.114;2022-08-11T12:22:53;4.25;;;2.50;;
59169;SDS011;52474;52.236;5.114;2022-08-11T12:25:41;2.60;;;2.35;;
59169;SDS011;52474;52.236;5.114;2022-08-11T12:28:27;4.90;;;2.20;;
59169;SDS011;52474;52.236;5.114;2022-08-11T12:30:54;2.80;;;2.35;;
59169;SDS011;52474;52.236;5.114;2022-08-11T12:33:25;4.20;;;2.38;;
59169;SDS011;52474;52.236;5.114;2022-08-11T12:35:55;5.03;;;2.80;;
59169;SDS011;52474;52.236;5.114;2022-08-11T12:38:24;3.63;;;2.20;;
59169;SDS011;52474;52.236;5.114;2022-08-11T12:40:51;3.08;;;2.38;;
59169;SDS011;52474;52.236;5.114;2022-08-11T12:43:40;6.45;;;2.53;;
59169;SDS011;52474;52.236;5.114;2022-08-11T12:46:30;3.85;;;2.30;;
59169;SDS011;52474;52.236;5.114;2022-08-11T12:49:02;3.25;;;2.45;;
59169;SDS011;52474;52.236;5.114;2022-08-11T12:51:53;5.50;;;2.30;;
59169;SDS011;52474;52.236;5.114;2022-08-11T12:57:32;3.17;;;2.25;;
59169;SDS011;52474;52.236;5.114;2022-08-11T13:00:20;2.30;;;2.10;;
59169;SDS011;52474;52.236;5.114;2022-08-11T13:03:08;4.07;;;1.83;;
59169;SDS011;52474;52.236;5.114;2022-08-11T13:05:57;3.17;;;2.40;;
59169;SDS011;52474;52.236;5.114;2022-08-11T13:08:25;5.03;;;2.30;;
59169;SDS011;52474;52.236;5.114;2022-08-11T13:11:03;5.72;;;2.20;;
59169;SDS011;52474;52.236;5.114;2022-08-11T13:13:57;4.85;;;2.05;;
59169;SDS011;52474;52.236;5.114;2022-08-11T13:16:32;3.88;;;2.28;;
59169;SDS011;52474;52.236;5.114;2022-08-11T13:19:23;2.90;;;2.30;;
59169;SDS011;52474;52.236;5.114;2022-08-11T13:21:52;3.42;;;2.15;;
59169;SDS011;52474;52.236;5.114;2022-08-11T13:24:18;4.47;;;1.80;;
59169;SDS011;52474;52.236;5.114;2022-08-11T13:26:46;4.70;;;2.47;;
59169;SDS011;52474;52.236;5.114;2022-08-11T13:29:15;3.43;;;2.20;;
59169;SDS011;52474;52.236;5.114;2022-08-11T13:31:49;5.00;;;2.00;;
59169;SDS011;52474;52.236;5.114;2022-08-11T13:34:18;4.93;;;2.35;;
59169;SDS011;52474;52.236;5.114;2022-08-11T13:36:46;2.92;;;1.90;;
59169;SDS011;52474;52.236;5.114;2022-08-11T13:39:17;3.35;;;2.25;;
59169;SDS011;52474;52.236;5.114;2022-08-11T13:41:44;2.88;;;2.00;;
59169;SDS011;52474;52.236;5.114;2022-08-11T13:44:12;2.08;;;1.85;;
59169;SDS011;52474;52.236;5.114;2022-08-11T13:46:47;2.75;;;1.95;;
59169;SDS011;52474;52.236;5.114;2022-08-11T13:49:17;2.47;;;2.03;;
59169;SDS011;52474;52.236;5.114;2022-08-11T13:51:45;4.80;;;2.17;;
59169;SDS011;52474;52.236;5.114;2022-08-11T13:54:14;2.72;;;1.80;;
59169;SDS011;52474;52.236;5.114;2022-08-11T13:56:44;3.05;;;2.20;;
59169;SDS011;52474;52.236;5.114;2022-08-11T13:59:14;3.70;;;2.10;;
59169;SDS011;52474;52.236;5.114;2022-08-11T14:01:48;2.97;;;1.80;;
59169;SDS011;52474;52.236;5.114;2022-08-11T14:04:22;4.68;;;1.70;;
59169;SDS011;52474;52.236;5.114;2022-08-11T14:06:59;2.00;;;1.80;;
59169;SDS011;52474;52.236;5.114;2022-08-11T14:09:35;2.30;;;1.80;;
59169;SDS011;52474;52.236;5.114;2022-08-11T14:12:08;9.15;;;2.08;;
59169;SDS011;52474;52.236;5.114;2022-08-11T14:15:10;5.47;;;1.65;;
59169;SDS011;52474;52.236;5.114;2022-08-11T14:18:03;3.88;;;2.00;;
59169;SDS011;52474;52.236;5.114;2022-08-11T14:20:32;5.57;;;2.08;;
59169;SDS011;52474;52.236;5.114;2022-08-11T14:23:27;3.08;;;1.80;;
59169;SDS011;52474;52.236;5.114;2022-08-11T14:26:06;2.83;;;2.10;;
59169;SDS011;52474;52.236;5.114;2022-08-11T14:31:43;2.78;;;1.80;;
59169;SDS011;52474;52.236;5.114;2022-08-11T14:34:14;4.13;;;2.20;;
59169;SDS011;52474;52.236;5.114;2022-08-11T14:36:48;4.25;;;2.10;;
59169;SDS011;52474;52.236;5.114;2022-08-11T14:39:26;4.07;;;1.88;;
59169;SDS011;52474;52.236;5.114;2022-08-11T14:42:03;2.67;;;1.73;;
59169;SDS011;52474;52.236;5.114;2022-08-11T14:44:53;1.90;;;1.70;;
59169;SDS011;52474;52.236;5.114;2022-08-11T14:47:40;7.32;;;2.35;;
59169;SDS011;52474;52.236;5.114;2022-08-11T14:50:16;2.63;;;1.93;;
59169;SDS011;52474;52.236;5.114;2022-08-11T14:52:54;2.72;;;2.17;;
59169;SDS011;52474;52.236;5.114;2022-08-11T14:55:23;2.25;;;1.85;;
59169;SDS011;52474;52.236;5.114;2022-08-11T14:58:09;4.90;;;1.90;;
59169;SDS011;52474;52.236;5.114;2022-08-11T15:00:37;3.90;;;1.87;;
59169;SDS011;52474;52.236;5.114;2022-08-11T15:03:05;4.43;;;1.97;;
59169;SDS011;52474;52.236;5.114;2022-08-11T15:08:07;2.33;;;2.05;;
59169;SDS011;52474;52.236;5.114;2022-08-11T15:10:33;5.13;;;2.05;;
59169;SDS011;52474;52.236;5.114;2022-08-11T15:13:01;5.95;;;1.83;;
59169;SDS011;52474;52.236;5.114;2022-08-11T15:15:31;5.10;;;2.00;;
59169;SDS011;52474;52.236;5.114;2022-08-11T15:18:17;4.63;;;2.30;;
59169;SDS011;52474;52.236;5.114;2022-08-11T15:20:45;2.90;;;2.07;;
59169;SDS011;52474;52.236;5.114;2022-08-11T15:23:31;3.35;;;1.92;;
59169;SDS011;52474;52.236;5.114;2022-08-11T15:26:16;3.28;;;1.92;;
59169;SDS011;52474;52.236;5.114;2022-08-11T15:29:07;2.90;;;2.00;;
59169;SDS011;52474;52.236;5.114;2022-08-11T15:31:52;3.00;;;1.80;;
59169;SDS011;52474;52.236;5.114;2022-08-11T15:34:38;5.05;;;2.20;;
59169;SDS011;52474;52.236;5.114;2022-08-11T15:37:24;3.35;;;1.90;;
59169;SDS011;52474;52.236;5.114;2022-08-11T15:39:56;3.15;;;2.10;;
59169;SDS011;52474;52.236;5.114;2022-08-11T15:42:57;3.08;;;1.90;;
59169;SDS011;52474;52.236;5.114;2022-08-11T15:45:59;3.22;;;2.03;;
59169;SDS011;52474;52.236;5.114;2022-08-11T15:50:57;2.22;;;2.03;;
59169;SDS011;52474;52.236;5.114;2022-08-11T15:53:46;4.07;;;2.10;;
59169;SDS011;52474;52.236;5.114;2022-08-11T15:56:16;3.85;;;2.10;;
59169;SDS011;52474;52.236;5.114;2022-08-11T15:58:47;2.78;;;2.00;;
59169;SDS011;52474;52.236;5.114;2022-08-11T16:01:34;3.10;;;1.95;;
59169;SDS011;52474;52.236;5.114;2022-08-11T16:04:24;3.60;;;1.90;;
59169;SDS011;52474;52.236;5.114;2022-08-11T16:09:20;4.00;;;1.88;;
59169;SDS011;52474;52.236;5.114;2022-08-11T16:11:53;4.10;;;2.15;;
59169;SDS011;52474;52.236;5.114;2022-08-11T16:18:02;4.97;;;2.15;;
59169;SDS011;52474;52.236;5.114;2022-08-11T16:20:31;4.68;;;2.70;;
59169;SDS011;52474;52.236;5.114;2022-08-11T16:22:59;2.60;;;2.20;;
59169;SDS011;52474;52.236;5.114;2022-08-11T16:25:28;2.55;;;2.08;;
59169;SDS011;52474;52.236;5.114;2022-08-11T16:27:58;4.13;;;2.05;;
59169;SDS011;52474;52.236;5.114;2022-08-11T16:30:33;2.47;;;1.90;;
59169;SDS011;52474;52.236;5.114;2022-08-11T16:33:00;2.72;;;1.92;;
59169;SDS011;52474;52.236;5.114;2022-08-11T16:35:28;2.95;;;2.17;;
59169;SDS011;52474;52.236;5.114;2022-08-11T16:38:17;3.05;;;2.15;;
59169;SDS011;52474;52.236;5.114;2022-08-11T16:41:01;3.50;;;1.85;;
59169;SDS011;52474;52.236;5.114;2022-08-11T16:43:34;5.07;;;2.28;;
59169;SDS011;52474;52.236;5.114;2022-08-11T16:46:23;6.18;;;2.10;;
59169;SDS011;52474;52.236;5.114;2022-08-11T16:49:11;3.33;;;2.10;;
59169;SDS011;52474;52.236;5.114;2022-08-11T16:51:42;3.83;;;2.33;;
59169;SDS011;52474;52.236;5.114;2022-08-11T16:54:09;3.83;;;1.85;;
59169;SDS011;52474;52.236;5.114;2022-08-11T16:56:45;2.88;;;2.05;;
59169;SDS011;52474;52.236;5.114;2022-08-11T16:59:28;3.97;;;2.15;;
59169;SDS011;52474;52.236;5.114;2022-08-11T17:02:02;4.00;;;2.10;;
59169;SDS011;52474;52.236;5.114;2022-08-11T17:04:49;2.60;;;2.13;;
59169;SDS011;52474;52.236;5.114;2022-08-11T17:07:37;3.45;;;2.00;;
59169;SDS011;52474;52.236;5.114;2022-08-11T17:10:25;4.68;;;2.13;;
59169;SDS011;52474;52.236;5.114;2022-08-11T17:13:13;3.17;;;1.80;;
59169;SDS011;52474;52.236;5.114;2022-08-11T17:15:46;5.03;;;2.28;;
59169;SDS011;52474;52.236;5.114;2022-08-11T17:18:37;1.90;;;1.80;;
59169;SDS011;52474;52.236;5.114;2022-08-11T17:23:47;4.05;;;2.25;;
59169;SDS011;52474;52.236;5.114;2022-08-11T17:26:32;3.92;;;1.98;;
59169;SDS011;52474;52.236;5.114;2022-08-11T17:29:24;3.25;;;2.03;;
59169;SDS011;52474;52.236;5.114;2022-08-11T17:32:03;3.33;;;2.10;;
59169;SDS011;52474;52.236;5.114;2022-08-11T17:34:51;3.80;;;2.00;;
59169;SDS011;52474;52.236;5.114;2022-08-11T17:37:39;4.82;;;2.25;;
59169;SDS011;52474;52.236;5.114;2022-08-11T17:40:07;4.00;;;2.35;;
59169;SDS011;52474;52.236;5.114;2022-08-11T17:42:34;4.27;;;2.30;;
59169;SDS011;52474;52.236;5.114;2022-08-11T17:45:20;3.10;;;2.30;;
59169;SDS011;52474;52.236;5.114;2022-08-11T17:48:05;3.90;;;2.30;;
59169;SDS011;52474;52.236;5.114;2022-08-11T17:50:53;4.63;;;2.38;;
59169;SDS011;52474;52.236;5.114;2022-08-11T17:53:23;4.40;;;2.10;;
59169;SDS011;52474;52.236;5.114;2022-08-11T17:56:08;6.13;;;2.72;;
59169;SDS011;52474;52.236;5.114;2022-08-11T17:58:53;3.75;;;2.30;;
59169;SDS011;52474;52.236;5.114;2022-08-11T18:01:39;4.30;;;2.30;;
59169;SDS011;52474;52.236;5.114;2022-08-11T18:04:11;4.00;;;2.58;;
59169;SDS011;52474;52.236;5.114;2022-08-11T18:06:39;3.15;;;2.30;;
59169;SDS011;52474;52.236;5.114;2022-08-11T18:09:07;2.85;;;2.15;;
59169;SDS011;52474;52.236;5.114;2022-08-11T18:12:01;3.78;;;2.40;;
59169;SDS011;52474;52.236;5.114;2022-08-11T18:14:50;2.45;;;2.25;;
59169;SDS011;52474;52.236;5.114;2022-08-11T18:17:38;3.22;;;1.83;;
59169;SDS011;52474;52.236;5.114;2022-08-11T18:20:28;3.33;;;1.92;;
59169;SDS011;52474;52.236;5.114;2022-08-11T18:23:15;3.13;;;2.28;;
59169;SDS011;52474;52.236;5.114;2022-08-11T18:26:03;3.40;;;2.08;;
59169;SDS011;52474;52.236;5.114;2022-08-11T18:28:50;6.03;;;2.35;;
59169;SDS011;52474;52.236;5.114;2022-08-11T18:31:41;2.88;;;2.20;;
59169;SDS011;52474;52.236;5.114;2022-08-11T18:34:51;4.40;;;2.78;;
59169;SDS011;52474;52.236;5.114;2022-08-11T18:38:13;3.58;;;2.40;;
59169;SDS011;52474;52.236;5.114;2022-08-11T18:41:01;4.03;;;2.83;;
59169;SDS011;52474;52.236;5.114;2022-08-11T18:43:48;3.55;;;2.67;;
59169;SDS011;52474;52.236;5.114;2022-08-11T18:46:35;5.05;;;2.90;;
59169;SDS011;52474;52.236;5.114;2022-08-11T18:49:22;7.90;;;3.05;;
59169;SDS011;52474;52.236;5.114;2022-08-11T18:52:11;5.68;;;2.83;;
59169;SDS011;52474;52.236;5.114;2022-08-11T18:55:04;4.85;;;2.58;;
59169;SDS011;52474;52.236;5.114;2022-08-11T18:57:54;3.05;;;2.72;;
59169;SDS011;52474;52.236;5.114;2022-08-11T19:00:40;4.45;;;2.53;;
59169;SDS011;52474;52.236;5.114;2022-08-11T19:03:29;5.43;;;2.22;;
59169;SDS011;52474;52.236;5.114;2022-08-11T19:06:14;4.22;;;2.58;;
59169;SDS011;52474;52.236;5.114;2022-08-11T19:09:03;4.90;;;2.42;;
59169;SDS011;52474;52.236;5.114;2022-08-11T19:11:50;4.80;;;2.70;;
59169;SDS011;52474;52.236;5.114;2022-08-11T19:14:37;5.68;;;2.65;;
59169;SDS011;52474;52.236;5.114;2022-08-11T19:17:34;4.80;;;2.75;;
59169;SDS011;52474;52.236;5.114;2022-08-11T19:20:21;3.28;;;2.38;;
59169;SDS011;52474;52.236;5.114;2022-08-11T19:23:08;3.08;;;2.45;;
59169;SDS011;52474;52.236;5.114;2022-08-11T19:25:54;3.33;;;2.60;;
59169;SDS011;52474;52.236;5.114;2022-08-11T19:28:41;7.68;;;2.53;;
59169;SDS011;52474;52.236;5.114;2022-08-11T19:31:29;6.63;;;2.70;;
59169;SDS011;52474;52.236;5.114;2022-08-11T19:34:15;4.53;;;2.85;;
59169;SDS011;52474;52.236;5.114;2022-08-11T19:37:02;5.18;;;2.35;;
59169;SDS011;52474;52.236;5.114;2022-08-11T19:39:48;6.35;;;2.75;;
59169;SDS011;52474;52.236;5.114;2022-08-11T19:52:40;4.40;;;2.60;;
59169;SDS011;52474;52.236;5.114;2022-08-11T20:00:53;2.75;;;2.55;;
59169;SDS011;52474;52.236;5.114;2022-08-11T20:03:38;7.60;;;2.85;;
59169;SDS011;52474;52.236;5.114;2022-08-11T20:06:44;3.67;;;2.67;;
59169;SDS011;52474;52.236;5.114;2022-08-11T20:22:06;5.28;;;2.50;;
59169;SDS011;52474;52.236;5.114;2022-08-11T20:25:03;3.15;;;2.83;;
59169;SDS011;52474;52.236;5.114;2022-08-11T20:27:51;6.40;;;2.92;;
59169;SDS011;52474;52.236;5.114;2022-08-11T20:30:37;6.07;;;2.70;;
59169;SDS011;52474;52.236;5.114;2022-08-11T20:33:34;4.63;;;2.70;;
59169;SDS011;52474;52.236;5.114;2022-08-11T20:36:23;5.38;;;2.38;;